Weather at Capital International Airport

Public forecast

Using degrees Celsius for public forecast. Weather courtesy of forecast.io.

Current aviation weather report (METAR) for Capital International Airport

2024/07/19 07:00 (retrieved 1 hour ago)

HECP 190700Z 02004KT 6000 NSC 27/21 Q1007 NOSIG

Closest aviation forecast (TAF) to Capital International Airport

Closest forecast is Cairo International Airport, 23.3 nm (43.1 km) W.

2024/07/19 06:00 (retrieved 2 hours ago)

TAF HECA 190500Z 1906/2012 34006KT 6000 SCT020 BECMG 1909/1911 35014KT CAVOK